sensor_id;sensor_type;location;lat;lon;timestamp;pressure;altitude;pressure_sealevel;temperature;humidity
44988;BME280;35735;52.226;21.254;2022-12-07T00:00:22;99616.50;;;2.59;100.00
44988;BME280;35735;52.226;21.254;2022-12-07T00:05:22;99627.09;;;2.56;100.00
44988;BME280;35735;52.226;21.254;2022-12-07T00:10:23;99612.81;;;2.54;100.00
44988;BME280;35735;52.226;21.254;2022-12-07T00:15:23;99608.41;;;2.54;100.00
44988;BME280;35735;52.226;21.254;2022-12-07T00:20:24;99603.81;;;2.46;100.00
44988;BME280;35735;52.226;21.254;2022-12-07T00:25:25;99598.59;;;2.52;100.00
44988;BME280;35735;52.226;21.254;2022-12-07T00:30:25;99596.75;;;2.48;100.00
44988;BME280;35735;52.226;21.254;2022-12-07T00:35:26;99595.78;;;2.44;100.00
44988;BME280;35735;52.226;21.254;2022-12-07T00:40:27;99603.78;;;2.44;100.00
44988;BME280;35735;52.226;21.254;2022-12-07T00:45:27;99604.63;;;2.43;100.00
44988;BME280;35735;52.226;21.254;2022-12-07T00:50:28;99594.81;;;2.40;100.00
44988;BME280;35735;52.226;21.254;2022-12-07T00:55:33;99599.13;;;2.34;100.00
44988;BME280;35735;52.226;21.254;2022-12-07T01:00:36;99592.78;;;2.27;100.00
44988;BME280;35735;52.226;21.254;2022-12-07T01:05:38;99594.63;;;2.31;100.00
44988;BME280;35735;52.226;21.254;2022-12-07T01:10:38;99601.75;;;2.31;100.00
44988;BME280;35735;52.226;21.254;2022-12-07T01:15:43;99595.53;;;2.32;100.00
44988;BME280;35735;52.226;21.254;2022-12-07T01:20:44;99588.44;;;2.31;100.00
44988;BME280;35735;52.226;21.254;2022-12-07T01:25:44;99585.06;;;2.41;100.00
44988;BME280;35735;52.226;21.254;2022-12-07T01:30:55;99583.66;;;2.60;100.00
44988;BME280;35735;52.226;21.254;2022-12-07T01:36:14;99577.47;;;2.61;100.00
44988;BME280;35735;52.226;21.254;2022-12-07T01:41:15;99577.56;;;2.66;100.00
44988;BME280;35735;52.226;21.254;2022-12-07T01:46:16;99571.28;;;2.64;100.00
44988;BME280;35735;52.226;21.254;2022-12-07T01:51:17;99571.25;;;2.62;100.00
44988;BME280;35735;52.226;21.254;2022-12-07T01:56:20;99565.00;;;2.60;100.00
44988;BME280;35735;52.226;21.254;2022-12-07T02:01:24;99564.09;;;2.59;100.00
44988;BME280;35735;52.226;21.254;2022-12-07T02:06:26;99558.84;;;2.63;100.00
44988;BME280;35735;52.226;21.254;2022-12-07T02:11:27;99556.22;;;2.67;100.00
44988;BME280;35735;52.226;21.254;2022-12-07T02:27:47;99550.97;;;2.70;100.00
44988;BME280;35735;52.226;21.254;2022-12-07T02:32:56;99545.56;;;2.67;100.00
44988;BME280;35735;52.226;21.254;2022-12-07T02:38:25;99544.59;;;2.62;100.00
44988;BME280;35735;52.226;21.254;2022-12-07T02:43:52;99540.97;;;2.57;100.00
44988;BME280;35735;52.226;21.254;2022-12-07T02:48:54;99541.91;;;2.59;100.00
44988;BME280;35735;52.226;21.254;2022-12-07T02:53:55;99536.69;;;2.67;100.00
44988;BME280;35735;52.226;21.254;2022-12-07T02:59:03;99529.59;;;2.67;100.00
44988;BME280;35735;52.226;21.254;2022-12-07T03:09:44;99524.47;;;2.78;100.00
44988;BME280;35735;52.226;21.254;2022-12-07T03:15:05;99520.97;;;2.82;100.00
44988;BME280;35735;52.226;21.254;2022-12-07T03:20:13;99513.84;;;2.81;100.00
44988;BME280;35735;52.226;21.254;2022-12-07T03:25:16;99519.06;;;2.75;100.00
44988;BME280;35735;52.226;21.254;2022-12-07T03:30:22;99519.00;;;2.70;100.00
44988;BME280;35735;52.226;21.254;2022-12-07T03:35:30;99513.69;;;2.72;100.00
44988;BME280;35735;52.226;21.254;2022-12-07T03:40:39;99513.66;;;2.70;100.00
44988;BME280;35735;52.226;21.254;2022-12-07T03:45:50;99510.03;;;2.65;100.00
44988;BME280;35735;52.226;21.254;2022-12-07T03:51:24;99505.47;;;2.58;100.00
44988;BME280;35735;52.226;21.254;2022-12-07T03:56:29;99516.91;;;2.51;100.00
44988;BME280;35735;52.226;21.254;2022-12-07T04:01:31;99508.13;;;2.58;100.00
44988;BME280;35735;52.226;21.254;2022-12-07T04:06:32;99501.12;;;2.63;100.00
44988;BME280;35735;52.226;21.254;2022-12-07T04:11:32;99492.19;;;2.61;100.00
44988;BME280;35735;52.226;21.254;2022-12-07T04:16:33;99494.78;;;2.56;100.00
44988;BME280;35735;52.226;21.254;2022-12-07T04:21:34;99494.78;;;2.56;100.00
44988;BME280;35735;52.226;21.254;2022-12-07T04:26:34;99503.50;;;2.48;100.00
44988;BME280;35735;52.226;21.254;2022-12-07T04:31:35;99499.97;;;2.49;100.00
44988;BME280;35735;52.226;21.254;2022-12-07T04:36:37;99503.44;;;2.43;100.00
44988;BME280;35735;52.226;21.254;2022-12-07T04:41:38;99489.28;;;2.47;100.00
44988;BME280;35735;52.226;21.254;2022-12-07T04:46:38;99484.88;;;2.48;100.00
44988;BME280;35735;52.226;21.254;2022-12-07T04:51:39;99483.94;;;2.46;100.00
44988;BME280;35735;52.226;21.254;2022-12-07T04:56:41;99492.78;;;2.43;100.00
44988;BME280;35735;52.226;21.254;2022-12-07T05:01:41;99487.22;;;2.31;100.00
44988;BME280;35735;52.226;21.254;2022-12-07T05:06:42;99485.44;;;2.30;100.00
44988;BME280;35735;52.226;21.254;2022-12-07T05:11:43;99487.22;;;2.29;100.00
44988;BME280;35735;52.226;21.254;2022-12-07T05:16:46;99479.19;;;2.28;100.00
44988;BME280;35735;52.226;21.254;2022-12-07T05:21:48;99475.59;;;2.27;100.00
44988;BME280;35735;52.226;21.254;2022-12-07T05:26:48;99474.66;;;2.23;100.00
44988;BME280;35735;52.226;21.254;2022-12-07T05:31:49;99468.34;;;2.18;100.00
44988;BME280;35735;52.226;21.254;2022-12-07T05:36:49;99479.09;;;2.23;100.00
44988;BME280;35735;52.226;21.254;2022-12-07T05:41:50;99480.06;;;2.28;100.00
44988;BME280;35735;52.226;21.254;2022-12-07T05:46:50;99465.75;;;2.21;100.00
44988;BME280;35735;52.226;21.254;2022-12-07T05:51:51;99473.75;;;2.21;100.00
44988;BME280;35735;52.226;21.254;2022-12-07T05:56:51;99478.22;;;2.22;100.00
44988;BME280;35735;52.226;21.254;2022-12-07T06:02:13;99487.03;;;2.20;100.00
44988;BME280;35735;52.226;21.254;2022-12-07T06:07:16;99473.53;;;2.09;100.00
44988;BME280;35735;52.226;21.254;2022-12-07T06:12:17;99477.88;;;2.04;100.00
44988;BME280;35735;52.226;21.254;2022-12-07T06:17:17;99476.16;;;2.08;100.00
44988;BME280;35735;52.226;21.254;2022-12-07T06:22:18;99476.00;;;2.00;100.00
44988;BME280;35735;52.226;21.254;2022-12-07T06:27:18;99476.88;;;2.00;100.00
44988;BME280;35735;52.226;21.254;2022-12-07T06:32:19;99481.22;;;1.95;100.00
44988;BME280;35735;52.226;21.254;2022-12-07T06:37:19;99471.53;;;1.97;100.00
44988;BME280;35735;52.226;21.254;2022-12-07T06:42:20;99471.53;;;1.97;100.00
44988;BME280;35735;52.226;21.254;2022-12-07T06:47:20;99467.94;;;1.97;100.00
44988;BME280;35735;52.226;21.254;2022-12-07T06:52:21;99474.91;;;1.90;100.00
44988;BME280;35735;52.226;21.254;2022-12-07T06:57:21;99471.34;;;1.88;100.00
44988;BME280;35735;52.226;21.254;2022-12-07T07:02:22;99467.63;;;1.80;100.00
44988;BME280;35735;52.226;21.254;2022-12-07T07:07:22;99465.84;;;1.79;100.00
44988;BME280;35735;52.226;21.254;2022-12-07T07:12:23;99467.59;;;1.78;100.00
44988;BME280;35735;52.226;21.254;2022-12-07T07:17:24;99476.41;;;1.76;100.00
44988;BME280;35735;52.226;21.254;2022-12-07T07:22:24;99470.13;;;1.71;100.00
44988;BME280;35735;52.226;21.254;2022-12-07T07:27:25;99473.66;;;1.71;100.00
44988;BME280;35735;52.226;21.254;2022-12-07T07:32:25;99461.16;;;1.67;100.00
44988;BME280;35735;52.226;21.254;2022-12-07T07:37:26;99463.66;;;1.59;100.00
44988;BME280;35735;52.226;21.254;2022-12-07T07:42:26;99468.91;;;1.56;100.00
44988;BME280;35735;52.226;21.254;2022-12-07T07:47:27;99462.84;;;1.63;100.00
44988;BME280;35735;52.226;21.254;2022-12-07T07:52:27;99473.50;;;1.63;100.00
44988;BME280;35735;52.226;21.254;2022-12-07T07:57:28;99470.91;;;1.66;100.00
44988;BME280;35735;52.226;21.254;2022-12-07T08:02:28;99468.25;;;1.66;100.00
44988;BME280;35735;52.226;21.254;2022-12-07T08:07:29;99469.09;;;1.64;100.00
44988;BME280;35735;52.226;21.254;2022-12-07T08:12:30;99467.19;;;1.58;100.00
44988;BME280;35735;52.226;21.254;2022-12-07T08:17:30;99471.50;;;1.53;100.00
44988;BME280;35735;52.226;21.254;2022-12-07T08:22:31;99474.09;;;1.50;100.00
44988;BME280;35735;52.226;21.254;2022-12-07T08:27:32;99474.25;;;1.56;100.00
44988;BME280;35735;52.226;21.254;2022-12-07T08:32:32;99475.22;;;1.61;100.00
44988;BME280;35735;52.226;21.254;2022-12-07T08:37:33;99481.53;;;1.66;100.00
44988;BME280;35735;52.226;21.254;2022-12-07T08:42:33;99482.47;;;1.69;100.00
44988;BME280;35735;52.226;21.254;2022-12-07T08:47:37;99480.75;;;1.71;100.00
44988;BME280;35735;52.226;21.254;2022-12-07T08:52:41;99478.91;;;1.68;100.00
44988;BME280;35735;52.226;21.254;2022-12-07T08:57:42;99480.75;;;1.71;100.00
44988;BME280;35735;52.226;21.254;2022-12-07T09:02:46;99479.81;;;1.69;100.00
44988;BME280;35735;52.226;21.254;2022-12-07T09:07:51;99474.56;;;1.72;100.00
44988;BME280;35735;52.226;21.254;2022-12-07T09:12:56;99473.69;;;1.73;100.00
44988;BME280;35735;52.226;21.254;2022-12-07T09:17:57;99473.78;;;1.77;100.00
44988;BME280;35735;52.226;21.254;2022-12-07T09:22:58;99474.69;;;1.78;100.00
44988;BME280;35735;52.226;21.254;2022-12-07T09:27:58;99466.72;;;1.79;100.00
44988;BME280;35735;52.226;21.254;2022-12-07T09:32:59;99461.50;;;1.84;100.00
44988;BME280;35735;52.226;21.254;2022-12-07T09:37:59;99453.59;;;1.89;100.00
44988;BME280;35735;52.226;21.254;2022-12-07T09:43:00;99452.03;;;2.00;100.00
44988;BME280;35735;52.226;21.254;2022-12-07T09:48:02;99459.28;;;2.09;100.00
44988;BME280;35735;52.226;21.254;2022-12-07T09:53:08;99461.19;;;2.14;100.00
44988;BME280;35735;52.226;21.254;2022-12-07T09:58:25;99446.97;;;2.14;100.00
44988;BME280;35735;52.226;21.254;2022-12-07T10:03:27;99450.50;;;2.13;100.00
44988;BME280;35735;52.226;21.254;2022-12-07T10:08:28;99455.00;;;2.17;100.00
44988;BME280;35735;52.226;21.254;2022-12-07T10:13:40;99445.41;;;2.25;100.00
44988;BME280;35735;52.226;21.254;2022-12-07T10:18:42;99449.16;;;2.36;100.00
44988;BME280;35735;52.226;21.254;2022-12-07T10:24:00;99446.53;;;2.38;100.00
44988;BME280;35735;52.226;21.254;2022-12-07T10:29:28;99433.25;;;2.41;100.00
44988;BME280;35735;52.226;21.254;2022-12-07T10:34:33;99432.53;;;2.51;100.00
44988;BME280;35735;52.226;21.254;2022-12-07T10:39:47;99435.34;;;2.59;100.00
44988;BME280;35735;52.226;21.254;2022-12-07T10:44:50;99430.97;;;2.63;100.00
44988;BME280;35735;52.226;21.254;2022-12-07T10:55:58;99434.66;;;2.74;100.00
44988;BME280;35735;52.226;21.254;2022-12-07T11:01:32;99432.81;;;2.68;100.00
44988;BME280;35735;52.226;21.254;2022-12-07T11:11:59;99428.34;;;2.67;100.00
44988;BME280;35735;52.226;21.254;2022-12-07T11:17:14;99428.50;;;2.76;100.00
44988;BME280;35735;52.226;21.254;2022-12-07T11:22:39;99439.09;;;2.73;100.00
44988;BME280;35735;52.226;21.254;2022-12-07T11:28:03;99423.06;;;2.70;100.00
44988;BME280;35735;52.226;21.254;2022-12-07T11:33:16;99433.78;;;2.73;100.00
44988;BME280;35735;52.226;21.254;2022-12-07T11:49:43;99424.97;;;2.77;100.00
44988;BME280;35735;52.226;21.254;2022-12-07T11:54:49;99414.34;;;2.81;100.00
44988;BME280;35735;52.226;21.254;2022-12-07T11:59:59;99416.19;;;2.85;100.00
44988;BME280;35735;52.226;21.254;2022-12-07T12:05:13;99418.09;;;2.95;100.00
44988;BME280;35735;52.226;21.254;2022-12-07T12:10:27;99414.63;;;2.99;100.00
44988;BME280;35735;52.226;21.254;2022-12-07T12:15:46;99414.56;;;2.94;100.00
44988;BME280;35735;52.226;21.254;2022-12-07T12:21:02;99411.91;;;2.96;100.00
44988;BME280;35735;52.226;21.254;2022-12-07T12:26:07;99402.25;;;3.04;100.00
44988;BME280;35735;52.226;21.254;2022-12-07T12:31:31;99390.87;;;3.16;100.00
44988;BME280;35735;52.226;21.254;2022-12-07T12:57:17;99392.50;;;3.06;100.00
44988;BME280;35735;52.226;21.254;2022-12-07T13:02:54;99396.12;;;3.11;100.00
44988;BME280;35735;52.226;21.254;2022-12-07T13:08:05;99388.94;;;3.07;100.00
44988;BME280;35735;52.226;21.254;2022-12-07T13:34:31;99383.25;;;2.80;100.00
44988;BME280;35735;52.226;21.254;2022-12-07T13:39:54;99377.00;;;2.77;100.00
44988;BME280;35735;52.226;21.254;2022-12-07T13:45:25;99384.06;;;2.75;100.00
44988;BME280;35735;52.226;21.254;2022-12-07T13:50:30;99379.59;;;2.73;100.00
44988;BME280;35735;52.226;21.254;2022-12-07T13:55:32;99391.03;;;2.67;100.00
44988;BME280;35735;52.226;21.254;2022-12-07T14:00:33;99382.13;;;2.65;100.00
44988;BME280;35735;52.226;21.254;2022-12-07T14:05:35;99389.25;;;2.66;100.00
44988;BME280;35735;52.226;21.254;2022-12-07T14:10:39;99388.34;;;2.64;100.00
44988;BME280;35735;52.226;21.254;2022-12-07T14:15:51;99387.41;;;2.62;100.00
44988;BME280;35735;52.226;21.254;2022-12-07T14:21:03;99380.38;;;2.64;100.00
44988;BME280;35735;52.226;21.254;2022-12-07T14:26:20;99377.69;;;2.64;100.00
44988;BME280;35735;52.226;21.254;2022-12-07T14:31:23;99377.63;;;2.59;100.00
44988;BME280;35735;52.226;21.254;2022-12-07T14:36:24;99391.81;;;2.58;100.00
44988;BME280;35735;52.226;21.254;2022-12-07T14:41:25;99387.34;;;2.56;100.00
44988;BME280;35735;52.226;21.254;2022-12-07T14:46:25;99388.12;;;2.50;100.00
44988;BME280;35735;52.226;21.254;2022-12-07T14:51:26;99387.94;;;2.38;100.00
44988;BME280;35735;52.226;21.254;2022-12-07T14:56:26;99387.81;;;2.32;100.00
44988;BME280;35735;52.226;21.254;2022-12-07T15:01:27;99391.31;;;2.28;100.00
44988;BME280;35735;52.226;21.254;2022-12-07T15:06:27;99392.19;;;2.27;100.00
44988;BME280;35735;52.226;21.254;2022-12-07T15:11:28;99390.38;;;2.24;100.00
44988;BME280;35735;52.226;21.254;2022-12-07T15:16:28;99390.25;;;2.18;100.00
44988;BME280;35735;52.226;21.254;2022-12-07T15:21:29;99396.44;;;2.17;100.00
44988;BME280;35735;52.226;21.254;2022-12-07T15:26:29;99382.13;;;2.10;100.00
44988;BME280;35735;52.226;21.254;2022-12-07T15:31:30;99377.50;;;1.98;100.00
44988;BME280;35735;52.226;21.254;2022-12-07T15:36:33;99378.34;;;1.96;100.00
44988;BME280;35735;52.226;21.254;2022-12-07T15:41:34;99374.75;;;1.94;100.00
44988;BME280;35735;52.226;21.254;2022-12-07T15:46:37;99374.75;;;1.94;100.00
44988;BME280;35735;52.226;21.254;2022-12-07T15:51:40;99377.34;;;1.89;100.00
44988;BME280;35735;52.226;21.254;2022-12-07T15:56:42;99373.69;;;1.84;100.00
44988;BME280;35735;52.226;21.254;2022-12-07T16:01:42;99371.03;;;1.84;100.00
44988;BME280;35735;52.226;21.254;2022-12-07T16:06:43;99377.97;;;1.76;100.00
44988;BME280;35735;52.226;21.254;2022-12-07T16:11:43;99384.09;;;1.72;100.00
44988;BME280;35735;52.226;21.254;2022-12-07T16:16:44;99377.78;;;1.66;100.00
44988;BME280;35735;52.226;21.254;2022-12-07T16:21:44;99370.69;;;1.65;100.00
44988;BME280;35735;52.226;21.254;2022-12-07T16:26:45;99374.22;;;1.64;100.00
44988;BME280;35735;52.226;21.254;2022-12-07T16:31:46;99375.06;;;1.63;100.00
44988;BME280;35735;52.226;21.254;2022-12-07T16:36:47;99369.75;;;1.63;100.00
44988;BME280;35735;52.226;21.254;2022-12-07T16:41:47;99378.72;;;1.69;100.00
44988;BME280;35735;52.226;21.254;2022-12-07T16:46:48;99380.44;;;1.66;100.00
44988;BME280;35735;52.226;21.254;2022-12-07T16:51:51;99371.59;;;1.66;100.00
44988;BME280;35735;52.226;21.254;2022-12-07T16:56:53;99373.38;;;1.69;100.00
44988;BME280;35735;52.226;21.254;2022-12-07T17:01:54;99369.81;;;1.66;100.00
44988;BME280;35735;52.226;21.254;2022-12-07T17:06:54;99360.94;;;1.66;100.00
44988;BME280;35735;52.226;21.254;2022-12-07T17:11:55;99360.16;;;1.72;100.00
44988;BME280;35735;52.226;21.254;2022-12-07T17:16:55;99352.16;;;1.72;100.00
44988;BME280;35735;52.226;21.254;2022-12-07T17:21:56;99355.75;;;1.74;100.00
44988;BME280;35735;52.226;21.254;2022-12-07T17:26:56;99350.44;;;1.74;100.00
44988;BME280;35735;52.226;21.254;2022-12-07T17:31:57;99352.22;;;1.75;100.00
44988;BME280;35735;52.226;21.254;2022-12-07T17:36:59;99346.91;;;1.75;100.00
44988;BME280;35735;52.226;21.254;2022-12-07T17:41:59;99349.66;;;1.79;100.00
44988;BME280;35735;52.226;21.254;2022-12-07T17:47:00;99344.41;;;1.82;100.00
44988;BME280;35735;52.226;21.254;2022-12-07T17:52:01;99350.66;;;1.86;100.00
44988;BME280;35735;52.226;21.254;2022-12-07T17:57:01;99347.19;;;1.90;100.00
44988;BME280;35735;52.226;21.254;2022-12-07T18:02:02;99352.56;;;1.93;100.00
44988;BME280;35735;52.226;21.254;2022-12-07T18:07:03;99352.50;;;1.90;100.00
44988;BME280;35735;52.226;21.254;2022-12-07T18:12:04;99352.50;;;1.90;100.00
44988;BME280;35735;52.226;21.254;2022-12-07T18:17:04;99351.53;;;1.85;100.00
44988;BME280;35735;52.226;21.254;2022-12-07T18:22:05;99345.28;;;1.83;100.00
44988;BME280;35735;52.226;21.254;2022-12-07T18:27:06;99336.34;;;1.78;100.00
44988;BME280;35735;52.226;21.254;2022-12-07T18:32:06;99345.16;;;1.77;100.00
44988;BME280;35735;52.226;21.254;2022-12-07T18:37:07;99345.22;;;1.80;100.00
44988;BME280;35735;52.226;21.254;2022-12-07T18:42:07;99345.22;;;1.80;100.00
44988;BME280;35735;52.226;21.254;2022-12-07T18:47:08;99339.88;;;1.78;100.00
44988;BME280;35735;52.226;21.254;2022-12-07T18:52:09;99335.38;;;1.74;100.00
44988;BME280;35735;52.226;21.254;2022-12-07T18:57:09;99342.47;;;1.75;100.00
44988;BME280;35735;52.226;21.254;2022-12-07T19:02:10;99354.03;;;1.76;100.00
44988;BME280;35735;52.226;21.254;2022-12-07T19:07:10;99370.09;;;1.82;100.00
44988;BME280;35735;52.226;21.254;2022-12-07T19:12:12;99379.06;;;1.87;100.00
44988;BME280;35735;52.226;21.254;2022-12-07T19:17:13;99371.03;;;1.84;100.00
44988;BME280;35735;52.226;21.254;2022-12-07T19:22:15;99371.78;;;1.77;100.00
44988;BME280;35735;52.226;21.254;2022-12-07T19:27:18;99385.03;;;1.75;100.00
44988;BME280;35735;52.226;21.254;2022-12-07T19:32:19;99393.00;;;1.74;100.00
44988;BME280;35735;52.226;21.254;2022-12-07T19:37:19;99389.47;;;1.75;100.00
44988;BME280;35735;52.226;21.254;2022-12-07T19:42:20;99391.34;;;1.79;100.00
44988;BME280;35735;52.226;21.254;2022-12-07T19:47:20;99389.53;;;1.78;100.00
44988;BME280;35735;52.226;21.254;2022-12-07T19:52:21;99396.59;;;1.76;100.00
44988;BME280;35735;52.226;21.254;2022-12-07T19:57:21;99406.31;;;1.72;100.00
44988;BME280;35735;52.226;21.254;2022-12-07T20:02:22;99416.94;;;1.74;100.00
44988;BME280;35735;52.226;21.254;2022-12-07T20:07:23;99419.59;;;1.74;100.00
44988;BME280;35735;52.226;21.254;2022-12-07T20:12:23;99426.62;;;1.70;100.00
44988;BME280;35735;52.226;21.254;2022-12-07T20:17:24;99438.19;;;1.71;100.00
44988;BME280;35735;52.226;21.254;2022-12-07T20:22:24;99449.69;;;1.70;100.00
44988;BME280;35735;52.226;21.254;2022-12-07T20:27:25;99438.84;;;1.60;100.00
44988;BME280;35735;52.226;21.254;2022-12-07T20:32:25;99450.31;;;1.56;100.00
44988;BME280;35735;52.226;21.254;2022-12-07T20:37:26;99445.72;;;1.49;100.00
44988;BME280;35735;52.226;21.254;2022-12-07T20:42:26;99461.63;;;1.46;100.00
44988;BME280;35735;52.226;21.254;2022-12-07T20:47:27;99466.78;;;1.40;100.00
44988;BME280;35735;52.226;21.254;2022-12-07T20:52:28;99484.50;;;1.38;100.00
44988;BME280;35735;52.226;21.254;2022-12-07T20:57:29;99472.97;;;1.37;100.00
44988;BME280;35735;52.226;21.254;2022-12-07T21:02:30;99477.19;;;1.27;100.00
44988;BME280;35735;52.226;21.254;2022-12-07T21:07:30;99491.25;;;1.23;100.00
44988;BME280;35735;52.226;21.254;2022-12-07T21:12:31;99494.72;;;1.19;100.00
44988;BME280;35735;52.226;21.254;2022-12-07T21:17:31;99499.03;;;1.14;100.00
44988;BME280;35735;52.226;21.254;2022-12-07T21:22:32;99500.75;;;1.12;100.00
44988;BME280;35735;52.226;21.254;2022-12-07T21:27:33;99499.09;;;1.17;100.00
44988;BME280;35735;52.226;21.254;2022-12-07T21:32:33;99499.16;;;1.20;100.00
44988;BME280;35735;52.226;21.254;2022-12-07T21:37:34;99509.00;;;1.24;100.00
44988;BME280;35735;52.226;21.254;2022-12-07T21:42:35;99515.09;;;1.19;100.00
44988;BME280;35735;52.226;21.254;2022-12-07T21:47:35;99519.41;;;1.15;100.00
44988;BME280;35735;52.226;21.254;2022-12-07T21:52:36;99519.38;;;1.12;100.00
44988;BME280;35735;52.226;21.254;2022-12-07T21:57:36;99517.41;;;1.05;100.00
44988;BME280;35735;52.226;21.254;2022-12-07T22:02:37;99522.59;;;1.00;100.00
44988;BME280;35735;52.226;21.254;2022-12-07T22:07:38;99510.88;;;0.90;100.00
44988;BME280;35735;52.226;21.254;2022-12-07T22:12:38;99505.31;;;0.81;100.00
44988;BME280;35735;52.226;21.254;2022-12-07T22:17:39;99514.16;;;0.80;100.00
44988;BME280;35735;52.226;21.254;2022-12-07T22:22:39;99513.31;;;0.81;100.00
44988;BME280;35735;52.226;21.254;2022-12-07T22:27:41;99517.69;;;0.79;100.00
44988;BME280;35735;52.226;21.254;2022-12-07T22:32:41;99515.94;;;0.81;100.00
44988;BME280;35735;52.226;21.254;2022-12-07T22:37:42;99522.19;;;0.83;100.00
44988;BME280;35735;52.226;21.254;2022-12-07T22:42:42;99521.37;;;0.86;100.00
44988;BME280;35735;52.226;21.254;2022-12-07T22:47:43;99518.84;;;0.90;100.00
44988;BME280;35735;52.226;21.254;2022-12-07T22:52:43;99516.97;;;0.86;100.00
44988;BME280;35735;52.226;21.254;2022-12-07T22:57:44;99527.50;;;0.83;100.00
44988;BME280;35735;52.226;21.254;2022-12-07T23:02:45;99518.53;;;0.78;100.00
44988;BME280;35735;52.226;21.254;2022-12-07T23:07:45;99523.91;;;0.81;100.00
44988;BME280;35735;52.226;21.254;2022-12-07T23:12:46;99527.50;;;0.83;100.00
44988;BME280;35735;52.226;21.254;2022-12-07T23:17:46;99520.53;;;0.88;100.00
44988;BME280;35735;52.226;21.254;2022-12-07T23:22:47;99524.16;;;0.90;100.00
44988;BME280;35735;52.226;21.254;2022-12-07T23:27:47;99537.41;;;0.89;100.00
44988;BME280;35735;52.226;21.254;2022-12-07T23:32:48;99540.03;;;0.87;100.00
44988;BME280;35735;52.226;21.254;2022-12-07T23:37:49;99538.13;;;0.83;100.00
44988;BME280;35735;52.226;21.254;2022-12-07T23:42:49;99536.31;;;0.81;100.00
44988;BME280;35735;52.226;21.254;2022-12-07T23:47:50;99536.28;;;0.79;100.00
44988;BME280;35735;52.226;21.254;2022-12-07T23:52:50;99541.75;;;0.85;100.00
44988;BME280;35735;52.226;21.254;2022-12-07T23:57:51;99544.41;;;0.85;100.00
